Time;durP1;ratioP1;P1;durP2;ratioP2;P2;SDS_P1;SDS_P2;PMS_P1;PMS_P2;Temp;Humidity;BMP_temperature;BMP_pressure;BME280_temperature;BME280_humidity;BME280_pressure;Samples;Min_cycle;Max_cycle;Signal;HPM_P1;HPM_P2
2024/01/15 00:01:44;;;;;;;10.13;1.20;;;;;;;;;;5056274;28;20040;-85
2024/01/15 00:04:10;;;;;;;14.38;1.73;;;;;;;;;;5086576;28;20040;-85
2024/01/15 00:06:36;;;;;;;16.10;1.88;;;;;;;;;;5085029;28;20044;-85
2024/01/15 00:09:03;;;;;;;12.65;2.03;;;;;;;;;;5069700;28;20457;-85
2024/01/15 00:11:29;;;;;;;11.77;1.42;;;;;;;;;;5077852;28;20103;-85
2024/01/15 00:13:55;;;;;;;10.23;1.30;;;;;;;;;;5089789;28;20041;-86
2024/01/15 00:16:21;;;;;;;6.63;2.08;;;;;;;;;;5070838;28;20047;-86
2024/01/15 00:18:47;;;;;;;6.78;1.05;;;;;;;;;;5087672;28;20036;-86
2024/01/15 00:21:13;;;;;;;7.93;1.40;;;;;;;;;;5104629;27;20044;-84
2024/01/15 00:23:44;;;;;;;11.07;1.20;;;;;;;;;;5099587;27;20556;-85
2024/01/15 00:26:10;;;;;;;7.18;1.10;;;;;;;;;;5069512;28;20123;-86
2024/01/15 00:28:37;;;;;;;12.02;1.02;;;;;;;;;;5070005;28;20039;-85
2024/01/15 00:31:03;;;;;;;16.30;1.60;;;;;;;;;;5070895;28;20067;-85
2024/01/15 00:33:29;;;;;;;9.52;1.40;;;;;;;;;;5068990;28;20056;-85
2024/01/15 00:35:55;;;;;;;13.98;1.60;;;;;;;;;;5071628;28;20507;-85
2024/01/15 00:38:21;;;;;;;19.70;2.42;;;;;;;;;;5088372;28;20015;-85
2024/01/15 00:40:49;;;;;;;15.90;2.10;;;;;;;;;;5086720;28;20039;-85
2024/01/15 00:43:18;;;;;;;18.33;2.53;;;;;;;;;;5070229;28;20063;-86
2024/01/15 00:45:44;;;;;;;20.42;2.33;;;;;;;;;;5069649;28;20857;-86
2024/01/15 00:48:10;;;;;;;15.20;1.98;;;;;;;;;;5059030;28;20048;-85
2024/01/15 00:50:36;;;;;;;19.80;2.38;;;;;;;;;;5074590;28;20376;-85
2024/01/15 00:53:02;;;;;;;22.25;3.22;;;;;;;;;;5082538;28;20388;-85
2024/01/15 00:55:29;;;;;;;32.17;3.22;;;;;;;;;;5055794;28;20040;-85
2024/01/15 00:57:55;;;;;;;23.23;3.22;;;;;;;;;;5072895;28;20125;-85
2024/01/15 01:00:21;;;;;;;22.92;3.85;;;;;;;;;;5059156;28;20043;-84
2024/01/15 01:02:47;;;;;;;23.63;2.60;;;;;;;;;;5071758;28;20032;-86
2024/01/15 01:05:13;;;;;;;15.88;2.33;;;;;;;;;;5074351;28;20043;-85
2024/01/15 01:07:39;;;;;;;15.60;2.97;;;;;;;;;;5072059;28;20391;-85
2024/01/15 01:10:06;;;;;;;11.20;1.45;;;;;;;;;;5073426;28;20084;-85
2024/01/15 01:12:32;;;;;;;7.78;1.10;;;;;;;;;;5075175;28;20657;-85
2024/01/15 01:14:58;;;;;;;9.60;1.42;;;;;;;;;;5075532;28;20044;-84
2024/01/15 01:17:25;;;;;;;10.27;1.92;;;;;;;;;;5055161;28;20032;-83
2024/01/15 01:19:51;;;;;;;13.00;2.33;;;;;;;;;;5056087;28;20028;-83
2024/01/15 01:22:20;;;;;;;11.93;1.40;;;;;;;;;;5086136;28;20482;-84
2024/01/15 01:24:46;;;;;;;9.80;1.85;;;;;;;;;;5054873;28;20048;-84
2024/01/15 01:27:12;;;;;;;10.70;2.03;;;;;;;;;;5088968;28;20058;-85
2024/01/15 01:29:38;;;;;;;17.05;2.55;;;;;;;;;;5070110;28;20036;-85
2024/01/15 01:32:04;;;;;;;17.15;1.58;;;;;;;;;;5089728;28;20101;-84
2024/01/15 01:34:33;;;;;;;21.88;2.17;;;;;;;;;;5081428;28;20487;-84
2024/01/15 01:37:00;;;;;;;18.20;3.17;;;;;;;;;;5090245;28;20505;-84
2024/01/15 01:39:26;;;;;;;15.30;2.25;;;;;;;;;;5099455;27;20036;-84
2024/01/15 01:41:52;;;;;;;13.43;2.42;;;;;;;;;;5088321;28;20082;-84
2024/01/15 01:44:18;;;;;;;20.52;4.70;;;;;;;;;;5066578;28;20079;-84
2024/01/15 01:46:44;;;;;;;20.05;2.30;;;;;;;;;;5067474;28;20040;-85
2024/01/15 01:49:10;;;;;;;13.68;1.88;;;;;;;;;;5088186;28;20047;-84
2024/01/15 01:51:37;;;;;;;12.73;2.78;;;;;;;;;;5099731;28;20122;-85
2024/01/15 01:54:03;;;;;;;14.30;1.98;;;;;;;;;;5094508;28;20067;-84
2024/01/15 01:56:30;;;;;;;25.55;2.63;;;;;;;;;;5093006;28;20104;-85
2024/01/15 01:58:56;;;;;;;19.88;2.85;;;;;;;;;;5088350;28;20036;-85
2024/01/15 02:01:22;;;;;;;27.38;3.33;;;;;;;;;;5067893;28;20032;-84
2024/01/15 02:03:48;;;;;;;29.65;3.42;;;;;;;;;;5091749;28;20108;-86
2024/01/15 02:06:15;;;;;;;21.75;3.03;;;;;;;;;;5066516;28;20032;-85
2024/01/15 02:08:44;;;;;;;21.00;2.97;;;;;;;;;;5061637;28;20052;-86
2024/01/15 02:11:10;;;;;;;16.27;2.63;;;;;;;;;;5077594;28;20042;-85
2024/01/15 02:13:36;;;;;;;22.13;3.10;;;;;;;;;;5060794;28;20072;-86
2024/01/15 02:16:02;;;;;;;19.48;2.88;;;;;;;;;;5087839;28;20518;-86
2024/01/15 02:18:40;;;;;;;31.38;4.25;;;;;;;;;;5075618;28;20165;-86
2024/01/15 02:21:06;;;;;;;14.57;2.97;;;;;;;;;;5080173;28;20088;-86
2024/01/15 02:23:32;;;;;;;15.90;2.92;;;;;;;;;;5086234;28;20028;-84
2024/01/15 02:25:59;;;;;;;20.58;2.83;;;;;;;;;;5089446;28;20088;-86
2024/01/15 02:28:25;;;;;;;29.08;3.45;;;;;;;;;;5087756;28;20052;-85
2024/01/15 02:30:51;;;;;;;18.25;3.50;;;;;;;;;;5082011;28;20040;-85
2024/01/15 02:33:17;;;;;;;22.73;3.20;;;;;;;;;;5072827;28;20515;-85
2024/01/15 02:35:43;;;;;;;22.98;2.97;;;;;;;;;;5087757;28;20035;-86
2024/01/15 02:38:09;;;;;;;21.63;2.90;;;;;;;;;;5073538;28;20044;-86
2024/01/15 02:40:35;;;;;;;17.95;2.67;;;;;;;;;;5088890;28;20081;-86
2024/01/15 02:43:01;;;;;;;18.42;2.03;;;;;;;;;;5074914;28;20037;-85
2024/01/15 02:45:28;;;;;;;27.45;3.25;;;;;;;;;;5080154;28;20044;-86
2024/01/15 02:47:54;;;;;;;30.50;3.40;;;;;;;;;;5078937;28;20040;-87
2024/01/15 02:50:20;;;;;;;23.35;3.60;;;;;;;;;;5074283;28;20502;-85
2024/01/15 02:52:46;;;;;;;22.27;3.35;;;;;;;;;;5084488;28;20043;-85
2024/01/15 02:55:12;;;;;;;25.15;4.07;;;;;;;;;;5063781;28;20073;-86
2024/01/15 02:57:38;;;;;;;18.83;3.03;;;;;;;;;;5093034;28;20032;-86
2024/01/15 03:00:04;;;;;;;19.38;2.85;;;;;;;;;;5092938;28;20550;-86
2024/01/15 03:02:33;;;;;;;19.65;2.63;;;;;;;;;;5084876;28;20032;-86
2024/01/15 03:04:59;;;;;;;16.48;2.20;;;;;;;;;;5074854;28;20087;-87
2024/01/15 03:07:25;;;;;;;22.13;3.00;;;;;;;;;;5092405;28;20051;-86
2024/01/15 03:09:52;;;;;;;9.32;2.58;;;;;;;;;;5068024;28;20040;-87
2024/01/15 03:12:18;;;;;;;13.48;2.30;;;;;;;;;;5057609;28;20060;-87
2024/01/15 03:14:44;;;;;;;11.52;1.50;;;;;;;;;;5061358;28;20033;-85
2024/01/15 03:17:12;;;;;;;14.73;1.73;;;;;;;;;;5080008;28;21381;-88
2024/01/15 03:19:38;;;;;;;9.30;1.58;;;;;;;;;;5074955;28;20040;-88
2024/01/15 03:22:04;;;;;;;14.23;2.45;;;;;;;;;;5075615;28;20032;-88
2024/01/15 03:24:32;;;;;;;14.30;1.98;;;;;;;;;;5079139;28;20039;-88
2024/01/15 03:26:58;;;;;;;25.05;3.40;;;;;;;;;;5082951;28;20052;-88
2024/01/15 03:29:24;;;;;;;23.73;2.58;;;;;;;;;;5070899;28;20043;-87
2024/01/15 03:31:50;;;;;;;15.35;3.28;;;;;;;;;;5076776;28;20075;-88
2024/01/15 03:34:16;;;;;;;19.65;2.78;;;;;;;;;;5089950;28;20500;-89
2024/01/15 03:36:46;;;;;;;13.32;2.17;;;;;;;;;;5089405;28;20074;-88
2024/01/15 03:39:12;;;;;;;14.65;1.55;;;;;;;;;;5071745;28;20036;-88
2024/01/15 03:41:38;;;;;;;10.15;1.58;;;;;;;;;;5073679;28;20039;-88
2024/01/15 03:44:04;;;;;;;9.82;1.73;;;;;;;;;;5077310;28;20431;-86
2024/01/15 03:46:30;;;;;;;16.38;1.63;;;;;;;;;;5061001;28;20036;-87
2024/01/15 03:48:56;;;;;;;18.35;2.45;;;;;;;;;;5087992;28;20047;-87
2024/01/15 03:51:25;;;;;;;14.50;2.03;;;;;;;;;;5096166;28;20032;-87
2024/01/15 03:53:51;;;;;;;19.52;2.40;;;;;;;;;;5069257;28;20047;-87
2024/01/15 03:56:17;;;;;;;16.38;1.80;;;;;;;;;;5072159;28;20028;-87
2024/01/15 03:58:43;;;;;;;13.57;2.42;;;;;;;;;;5057051;28;20032;-87
2024/01/15 04:01:10;;;;;;;12.77;1.88;;;;;;;;;;5079206;28;20036;-87
2024/01/15 04:03:36;;;;;;;8.10;1.27;;;;;;;;;;5069630;28;20558;-86
2024/01/15 04:06:02;;;;;;;6.53;1.13;;;;;;;;;;5089623;28;20059;-86
2024/01/15 04:08:28;;;;;;;9.20;1.45;;;;;;;;;;5064562;28;20487;-86
2024/01/15 04:10:54;;;;;;;9.15;1.67;;;;;;;;;;5089776;28;20044;-87
2024/01/15 04:13:21;;;;;;;7.60;1.98;;;;;;;;;;5073096;28;20090;-88
2024/01/15 04:15:47;;;;;;;10.98;1.77;;;;;;;;;;5082605;28;20104;-87
2024/01/15 04:18:13;;;;;;;14.00;2.28;;;;;;;;;;5075495;28;20042;-87
2024/01/15 04:20:39;;;;;;;10.55;2.05;;;;;;;;;;5074038;28;20037;-87
2024/01/15 04:23:05;;;;;;;8.88;1.10;;;;;;;;;;5085948;28;20040;-86
2024/01/15 04:25:31;;;;;;;6.00;1.17;;;;;;;;;;5084728;28;20125;-87
2024/01/15 04:27:57;;;;;;;11.80;1.40;;;;;;;;;;5058406;28;20525;-86
2024/01/15 04:30:24;;;;;;;14.45;2.53;;;;;;;;;;5071948;28;20036;-87
2024/01/15 04:32:50;;;;;;;13.38;2.03;;;;;;;;;;5068160;28;20074;-87
2024/01/15 04:35:16;;;;;;;14.18;2.00;;;;;;;;;;5076174;28;20373;-87
2024/01/15 04:37:42;;;;;;;15.68;2.67;;;;;;;;;;5095467;28;20036;-87
2024/01/15 04:40:08;;;;;;;9.23;1.67;;;;;;;;;;5091431;28;20390;-87
2024/01/15 04:42:34;;;;;;;8.32;1.30;;;;;;;;;;5071597;28;20036;-86
2024/01/15 04:45:00;;;;;;;13.05;1.85;;;;;;;;;;5060762;28;20051;-85
2024/01/15 04:47:26;;;;;;;9.98;1.58;;;;;;;;;;5090568;28;20051;-84
2024/01/15 04:49:52;;;;;;;6.22;1.23;;;;;;;;;;5051504;28;20099;-84
2024/01/15 04:52:18;;;;;;;10.38;1.60;;;;;;;;;;5080072;28;20052;-84
2024/01/15 04:54:44;;;;;;;7.43;1.15;;;;;;;;;;5072214;28;20123;-86
2024/01/15 04:57:10;;;;;;;4.88;1.20;;;;;;;;;;5064676;28;20036;-85
2024/01/15 04:59:36;;;;;;;4.88;1.27;;;;;;;;;;5070532;28;20498;-86
2024/01/15 05:02:03;;;;;;;6.00;0.80;;;;;;;;;;5084963;28;20759;-86
2024/01/15 05:04:29;;;;;;;20.90;2.13;;;;;;;;;;5085236;28;20048;-86
2024/01/15 05:06:55;;;;;;;7.43;1.08;;;;;;;;;;5070181;28;20044;-87
2024/01/15 05:09:21;;;;;;;7.85;1.63;;;;;;;;;;5084071;28;20044;-86
2024/01/15 05:11:47;;;;;;;8.82;1.55;;;;;;;;;;5069871;28;20052;-86
2024/01/15 05:14:13;;;;;;;10.85;1.38;;;;;;;;;;5086422;28;20155;-83
2024/01/15 05:16:40;;;;;;;8.45;1.20;;;;;;;;;;5060612;28;20049;-84
2024/01/15 05:19:08;;;;;;;12.02;1.95;;;;;;;;;;5083326;28;20063;-84
2024/01/15 05:21:34;;;;;;;13.60;1.58;;;;;;;;;;5087342;28;20048;-84
2024/01/15 05:24:00;;;;;;;12.98;1.30;;;;;;;;;;5081535;28;20036;-85
2024/01/15 05:26:27;;;;;;;7.40;1.00;;;;;;;;;;5087826;28;20045;-85
2024/01/15 05:28:53;;;;;;;4.05;1.00;;;;;;;;;;5085360;28;20036;-85
2024/01/15 05:31:19;;;;;;;7.05;1.20;;;;;;;;;;5057201;28;20210;-86
2024/01/15 05:33:45;;;;;;;11.57;0.98;;;;;;;;;;5074552;28;20091;-85
2024/01/15 05:36:11;;;;;;;5.72;0.85;;;;;;;;;;5076249;28;20052;-87
2024/01/15 05:38:37;;;;;;;9.57;0.98;;;;;;;;;;5061408;28;20067;-85
2024/01/15 05:41:03;;;;;;;5.03;0.90;;;;;;;;;;5094570;28;20093;-85
2024/01/15 05:43:29;;;;;;;10.02;2.10;;;;;;;;;;5071321;28;20043;-85
2024/01/15 05:45:55;;;;;;;10.55;1.55;;;;;;;;;;5066794;28;20043;-84
2024/01/15 05:48:21;;;;;;;13.55;1.58;;;;;;;;;;5071677;28;20044;-84
2024/01/15 05:50:51;;;;;;;14.82;2.10;;;;;;;;;;5086659;28;20047;-84
2024/01/15 05:53:17;;;;;;;7.57;1.98;;;;;;;;;;5076601;28;20120;-83
2024/01/15 05:55:43;;;;;;;10.30;1.58;;;;;;;;;;5071106;28;20585;-85
2024/01/15 05:58:09;;;;;;;10.80;1.88;;;;;;;;;;5076314;28;20487;-84
2024/01/15 06:00:35;;;;;;;12.02;1.95;;;;;;;;;;5093789;28;20035;-84
2024/01/15 06:03:02;;;;;;;12.65;2.03;;;;;;;;;;5083561;28;20051;-84
2024/01/15 06:05:28;;;;;;;12.70;2.80;;;;;;;;;;5102643;28;20040;-85
2024/01/15 06:07:54;;;;;;;19.02;2.85;;;;;;;;;;5072396;28;20514;-84
2024/01/15 06:10:20;;;;;;;13.55;1.52;;;;;;;;;;5078796;28;20048;-84
2024/01/15 06:12:46;;;;;;;10.88;1.73;;;;;;;;;;5075327;28;20052;-84
2024/01/15 06:15:12;;;;;;;13.38;1.27;;;;;;;;;;5091263;28;20043;-86
2024/01/15 06:17:39;;;;;;;6.43;1.67;;;;;;;;;;5081885;28;20109;-85
2024/01/15 06:20:05;;;;;;;6.63;1.33;;;;;;;;;;5072030;28;20044;-85
2024/01/15 06:22:31;;;;;;;12.05;2.20;;;;;;;;;;5061511;28;20449;-86
2024/01/15 06:24:58;;;;;;;10.10;1.20;;;;;;;;;;5068980;28;20040;-85
2024/01/15 06:27:24;;;;;;;8.93;1.58;;;;;;;;;;5087850;28;20538;-85
2024/01/15 06:29:50;;;;;;;13.30;2.85;;;;;;;;;;5091428;28;20050;-85
2024/01/15 06:32:16;;;;;;;4.15;0.98;;;;;;;;;;5070661;28;20036;-85
2024/01/15 06:34:42;;;;;;;0.88;0.45;;;;;;;;;;5060100;28;20044;-86
2024/01/15 06:37:08;;;;;;;1.40;0.32;;;;;;;;;;5086342;28;20040;-86
2024/01/15 06:39:34;;;;;;;4.60;0.50;;;;;;;;;;5058401;28;20074;-86
2024/01/15 06:42:00;;;;;;;1.20;0.40;;;;;;;;;;5074754;28;20101;-86
2024/01/15 06:44:26;;;;;;;3.90;0.68;;;;;;;;;;5085336;28;20050;-86
2024/01/15 06:46:57;;;;;;;3.92;0.52;;;;;;;;;;5073243;28;20097;-86
2024/01/15 06:49:23;;;;;;;2.22;0.70;;;;;;;;;;5069109;28;20073;-86
2024/01/15 06:51:49;;;;;;;2.35;0.60;;;;;;;;;;5051460;28;20036;-86
2024/01/15 06:54:15;;;;;;;5.30;0.63;;;;;;;;;;5067130;28;20040;-87
2024/01/15 06:56:41;;;;;;;2.50;0.60;;;;;;;;;;5073658;28;20072;-87
2024/01/15 06:59:08;;;;;;;3.40;0.50;;;;;;;;;;5059968;28;20039;-86
2024/01/15 07:01:34;;;;;;;6.82;0.90;;;;;;;;;;5073519;28;20039;-87
2024/01/15 07:04:00;;;;;;;10.10;1.27;;;;;;;;;;5072371;28;20039;-88
2024/01/15 07:06:26;;;;;;;10.82;1.15;;;;;;;;;;5092031;28;20040;-87
2024/01/15 07:08:53;;;;;;;12.43;1.40;;;;;;;;;;5086859;28;20097;-86
2024/01/15 07:11:19;;;;;;;8.35;2.30;;;;;;;;;;5059702;28;20051;-87
2024/01/15 07:13:45;;;;;;;23.50;5.13;;;;;;;;;;5075677;28;20063;-87
2024/01/15 07:16:11;;;;;;;12.35;1.98;;;;;;;;;;5054313;28;20043;-87
2024/01/15 07:18:37;;;;;;;9.55;1.85;;;;;;;;;;5068983;28;20046;-87
2024/01/15 07:21:04;;;;;;;10.95;1.70;;;;;;;;;;5085016;28;20040;-87
2024/01/15 07:23:31;;;;;;;12.02;2.22;;;;;;;;;;5073190;28;20032;-87
2024/01/15 07:25:57;;;;;;;12.27;1.48;;;;;;;;;;5080580;28;20715;-86
2024/01/15 07:28:24;;;;;;;13.95;2.20;;;;;;;;;;5082733;28;20044;-87
2024/01/15 07:30:50;;;;;;;14.02;1.67;;;;;;;;;;5085438;28;20055;-88
2024/01/15 07:33:16;;;;;;;11.32;1.80;;;;;;;;;;5091011;28;20072;-90
2024/01/15 07:35:42;;;;;;;21.40;3.90;;;;;;;;;;5085046;28;20040;-86
2024/01/15 07:38:09;;;;;;;17.25;2.80;;;;;;;;;;5074772;28;20047;-85
2024/01/15 07:40:36;;;;;;;23.30;2.35;;;;;;;;;;5055780;28;20785;-85
2024/01/15 07:43:02;;;;;;;19.85;3.30;;;;;;;;;;5066567;28;20044;-85
2024/01/15 07:45:28;;;;;;;15.85;2.35;;;;;;;;;;5070215;28;20475;-85
2024/01/15 07:47:55;;;;;;;13.73;2.15;;;;;;;;;;5071508;28;20093;-85
2024/01/15 07:50:21;;;;;;;17.20;4.00;;;;;;;;;;5058817;28;20047;-84
2024/01/15 07:52:47;;;;;;;15.32;3.25;;;;;;;;;;5076596;28;20487;-79
2024/01/15 07:55:13;;;;;;;17.52;1.55;;;;;;;;;;5057263;28;20036;-80
2024/01/15 07:57:39;;;;;;;19.90;2.25;;;;;;;;;;5060953;28;20126;-79
2024/01/15 08:00:05;;;;;;;14.35;2.00;;;;;;;;;;5082993;28;20081;-80
2024/01/15 08:02:32;;;;;;;18.02;2.63;;;;;;;;;;5084753;28;20039;-80
2024/01/15 08:04:58;;;;;;;12.90;1.73;;;;;;;;;;5069775;28;20040;-79
2024/01/15 08:07:25;;;;;;;15.75;2.83;;;;;;;;;;5088408;28;20396;-80
2024/01/15 08:09:51;;;;;;;16.42;3.92;;;;;;;;;;5078711;28;20036;-79
2024/01/15 08:12:17;;;;;;;21.63;2.25;;;;;;;;;;5059557;28;20146;-78
2024/01/15 08:14:43;;;;;;;16.42;2.50;;;;;;;;;;5068073;28;20506;-79
2024/01/15 08:17:09;;;;;;;17.63;2.13;;;;;;;;;;5070078;28;20036;-80
2024/01/15 08:19:36;;;;;;;9.43;2.05;;;;;;;;;;5056574;28;20036;-79
2024/01/15 08:22:02;;;;;;;13.82;1.98;;;;;;;;;;5079369;28;20504;-79
2024/01/15 08:24:28;;;;;;;14.00;1.50;;;;;;;;;;5080762;28;20075;-79
2024/01/15 08:26:55;;;;;;;12.02;1.40;;;;;;;;;;5067248;28;20072;-80
2024/01/15 08:29:22;;;;;;;12.38;1.75;;;;;;;;;;5088435;28;20036;-79
2024/01/15 08:31:48;;;;;;;7.25;1.40;;;;;;;;;;5069474;28;20040;-81
2024/01/15 08:34:14;;;;;;;12.15;2.65;;;;;;;;;;5081739;28;20049;-78
2024/01/15 08:36:40;;;;;;;20.25;2.35;;;;;;;;;;5076831;28;20155;-79
2024/01/15 08:39:08;;;;;;;15.15;2.13;;;;;;;;;;5074895;28;20047;-78
2024/01/15 08:41:35;;;;;;;15.52;1.55;;;;;;;;;;5077565;28;20028;-79
2024/01/15 08:44:02;;;;;;;7.95;1.60;;;;;;;;;;5063573;28;20115;-79
2024/01/15 08:46:28;;;;;;;22.98;2.03;;;;;;;;;;5067465;28;20089;-79
2024/01/15 08:48:54;;;;;;;15.00;1.55;;;;;;;;;;5057024;28;20077;-78
2024/01/15 08:51:20;;;;;;;17.27;2.08;;;;;;;;;;5074698;28;20476;-76
2024/01/15 08:53:46;;;;;;;12.38;1.35;;;;;;;;;;5096127;28;20036;-78
2024/01/15 08:56:13;;;;;;;7.35;1.85;;;;;;;;;;5080383;28;20135;-78
2024/01/15 08:58:39;;;;;;;4.88;1.35;;;;;;;;;;5087866;28;20035;-78
2024/01/15 09:01:05;;;;;;;10.57;1.73;;;;;;;;;;5083869;28;20829;-80
2024/01/15 09:03:32;;;;;;;13.25;1.80;;;;;;;;;;5073072;28;20131;-78
2024/01/15 09:05:58;;;;;;;16.13;1.80;;;;;;;;;;5065435;28;20036;-78
2024/01/15 09:08:24;;;;;;;12.07;2.17;;;;;;;;;;5097811;28;20032;-82
2024/01/15 09:10:50;;;;;;;12.05;2.28;;;;;;;;;;5072585;28;20415;-80
2024/01/15 09:13:16;;;;;;;13.15;2.88;;;;;;;;;;5089442;28;20545;-79
2024/01/15 09:15:43;;;;;;;11.18;1.50;;;;;;;;;;5068900;28;20078;-79
2024/01/15 09:18:09;;;;;;;15.02;1.45;;;;;;;;;;5065193;28;20484;-78
2024/01/15 09:20:36;;;;;;;14.45;1.95;;;;;;;;;;5053049;28;20028;-82
2024/01/15 09:23:02;;;;;;;10.50;1.83;;;;;;;;;;5084969;28;20423;-79
2024/01/15 09:25:28;;;;;;;15.73;1.80;;;;;;;;;;5073977;28;20123;-78
2024/01/15 09:27:55;;;;;;;14.00;2.08;;;;;;;;;;5077705;28;20072;-79
2024/01/15 09:30:21;;;;;;;13.25;1.63;;;;;;;;;;5075629;28;20036;-79
2024/01/15 09:32:48;;;;;;;7.93;1.58;;;;;;;;;;5090109;28;20040;-80
2024/01/15 09:35:16;;;;;;;8.88;0.98;;;;;;;;;;5067883;28;20043;-80
2024/01/15 09:37:42;;;;;;;13.90;2.60;;;;;;;;;;5069045;28;20032;-78
2024/01/15 09:40:09;;;;;;;6.03;0.90;;;;;;;;;;5079748;28;20497;-77
2024/01/15 09:42:36;;;;;;;6.68;0.82;;;;;;;;;;5055956;28;20043;-78
2024/01/15 09:45:03;;;;;;;4.28;0.68;;;;;;;;;;5070316;28;20047;-78
2024/01/15 09:47:30;;;;;;;4.45;0.60;;;;;;;;;;5076662;28;20067;-78
2024/01/15 09:49:57;;;;;;;5.68;1.88;;;;;;;;;;5088826;28;20567;-79
2024/01/15 09:52:24;;;;;;;11.38;1.10;;;;;;;;;;5069712;28;20048;-79
2024/01/15 09:54:51;;;;;;;2.35;0.70;;;;;;;;;;5086224;28;20036;-80
2024/01/15 09:57:17;;;;;;;4.63;1.00;;;;;;;;;;5057878;28;20500;-78
2024/01/15 09:59:44;;;;;;;9.27;1.52;;;;;;;;;;5067683;28;20040;-79
2024/01/15 10:02:14;;;;;;;5.47;1.63;;;;;;;;;;5072692;28;20040;-78
2024/01/15 10:04:40;;;;;;;10.35;1.20;;;;;;;;;;5089641;28;20432;-79
2024/01/15 10:07:07;;;;;;;10.25;1.35;;;;;;;;;;5061863;28;20049;-80
2024/01/15 10:09:33;;;;;;;4.00;1.25;;;;;;;;;;5076987;28;20036;-79
2024/01/15 10:11:59;;;;;;;14.52;1.30;;;;;;;;;;5077307;28;20452;-79
2024/01/15 10:14:25;;;;;;;8.55;1.42;;;;;;;;;;5086381;28;20568;-79
2024/01/15 10:16:51;;;;;;;8.00;1.58;;;;;;;;;;5063375;28;20063;-84
2024/01/15 10:19:18;;;;;;;14.32;2.35;;;;;;;;;;5079891;28;20028;-84
2024/01/15 10:21:44;;;;;;;7.68;1.48;;;;;;;;;;5075678;28;20115;-81
2024/01/15 10:24:10;;;;;;;11.77;2.22;;;;;;;;;;5083570;28;20032;-82
2024/01/15 10:26:36;;;;;;;9.57;2.03;;;;;;;;;;5081751;28;20098;-80
2024/01/15 10:29:02;;;;;;;15.38;1.83;;;;;;;;;;5064393;28;20075;-80
2024/01/15 10:31:28;;;;;;;14.95;2.10;;;;;;;;;;5077518;28;20032;-81
2024/01/15 10:33:54;;;;;;;18.30;4.00;;;;;;;;;;5075964;28;20491;-80
2024/01/15 10:36:21;;;;;;;17.33;2.13;;;;;;;;;;5056905;28;20058;-80
2024/01/15 10:38:47;;;;;;;13.25;1.80;;;;;;;;;;5056738;28;20032;-80
2024/01/15 10:41:13;;;;;;;12.40;2.28;;;;;;;;;;5091448;28;20032;-79
2024/01/15 10:43:42;;;;;;;13.40;1.80;;;;;;;;;;5097346;28;20082;-81
2024/01/15 10:46:08;;;;;;;8.75;1.80;;;;;;;;;;5053416;28;20508;-79
2024/01/15 10:48:36;;;;;;;11.38;1.70;;;;;;;;;;5082888;28;20055;-80
2024/01/15 10:51:10;;;;;;;14.82;2.55;;;;;;;;;;5072093;28;20058;-80
2024/01/15 10:53:40;;;;;;;10.38;1.63;;;;;;;;;;5080864;28;20056;-78
2024/01/15 10:56:06;;;;;;;10.65;1.40;;;;;;;;;;5069912;28;20079;-79
2024/01/15 10:58:35;;;;;;;8.45;1.30;;;;;;;;;;5080269;28;20036;-79
2024/01/15 11:01:01;;;;;;;9.30;1.17;;;;;;;;;;5079702;28;20170;-82
2024/01/15 11:03:27;;;;;;;6.70;1.00;;;;;;;;;;5052079;28;20044;-81
2024/01/15 11:05:54;;;;;;;8.93;1.00;;;;;;;;;;5067097;28;20095;-80
2024/01/15 11:08:21;;;;;;;9.25;1.27;;;;;;;;;;5079793;28;20043;-79
2024/01/15 11:10:49;;;;;;;6.70;1.02;;;;;;;;;;5071465;28;20184;-79
2024/01/15 11:13:20;;;;;;;6.97;0.85;;;;;;;;;;5077745;28;20059;-79
2024/01/15 11:15:59;;;;;;;9.38;1.00;;;;;;;;;;5080711;28;20036;-77
2024/01/15 11:18:27;;;;;;;8.73;0.88;;;;;;;;;;5074183;28;20043;-81
2024/01/15 11:21:19;;;;;;;17.55;2.50;;;;;;;;;;5065963;28;20040;-80
2024/01/15 11:23:47;;;;;;;5.18;1.33;;;;;;;;;;5079158;28;20048;-79
2024/01/15 11:26:31;;;;;;;5.40;0.75;;;;;;;;;;5094397;28;20052;-81
2024/01/15 11:28:59;;;;;;;;;;;;;;;;;;5070497;28;20032;-80
2024/01/15 11:31:37;;;;;;;4.28;0.70;;;;;;;;;;5068966;28;19916;-80
2024/01/15 11:34:03;;;;;;;5.63;0.70;;;;;;;;;;5075664;28;20044;-79
2024/01/15 11:36:48;;;;;;;8.32;1.25;;;;;;;;;;5077995;28;20040;-78
2024/01/15 11:39:32;;;;;;;7.10;0.85;;;;;;;;;;5082565;28;20124;-81
2024/01/15 11:41:59;;;;;;;6.75;1.95;;;;;;;;;;5086032;28;20093;-80
2024/01/15 11:44:26;;;;;;;3.40;0.57;;;;;;;;;;5067634;28;20068;-80
2024/01/15 11:47:05;;;;;;;3.85;0.47;;;;;;;;;;5062225;28;20040;-80
2024/01/15 11:49:50;;;;;;;1.02;0.50;;;;;;;;;;5094295;28;20101;-81
2024/01/15 11:52:18;;;;;;;12.00;1.45;;;;;;;;;;5063941;28;20035;-82
2024/01/15 11:54:54;;;;;;;8.98;1.20;;;;;;;;;;5057979;28;20041;-80
2024/01/15 11:57:26;;;;;;;4.05;0.60;;;;;;;;;;5078337;28;20382;-83
2024/01/15 11:59:52;;;;;;;5.25;0.50;;;;;;;;;;5078747;28;20090;-82
2024/01/15 12:02:18;;;;;;;6.22;1.60;;;;;;;;;;5059353;28;20044;-81
2024/01/15 12:04:44;;;;;;;5.13;1.25;;;;;;;;;;5075880;28;20383;-80
2024/01/15 12:07:10;;;;;;;1.10;0.40;;;;;;;;;;5080612;28;20040;-80
2024/01/15 12:09:42;;;;;;;1.50;0.40;;;;;;;;;;5082351;28;20044;-81
2024/01/15 12:12:12;;;;;;;7.82;0.80;;;;;;;;;;5065970;28;20039;-79
2024/01/15 12:14:38;;;;;;;3.45;0.95;;;;;;;;;;5059383;28;20133;-80
2024/01/15 12:17:04;;;;;;;6.55;1.02;;;;;;;;;;5084272;28;20131;-80
2024/01/15 12:19:30;;;;;;;3.20;0.50;;;;;;;;;;5063574;28;20487;-81
2024/01/15 12:21:57;;;;;;;3.97;0.68;;;;;;;;;;5060127;28;20043;-82
2024/01/15 12:24:23;;;;;;;11.38;1.60;;;;;;;;;;5063478;28;20388;-79
2024/01/15 12:26:49;;;;;;;9.65;1.15;;;;;;;;;;5065692;28;20043;-83
2024/01/15 12:29:18;;;;;;;5.95;1.27;;;;;;;;;;5061119;28;20032;-80
2024/01/15 12:31:48;;;;;;;6.80;1.35;;;;;;;;;;5067682;28;20032;-83
2024/01/15 12:34:14;;;;;;;10.95;1.95;;;;;;;;;;5080327;28;20029;-81
2024/01/15 12:36:41;;;;;;;15.32;3.35;;;;;;;;;;5070301;28;20058;-76
2024/01/15 12:39:11;;;;;;;5.25;1.35;;;;;;;;;;5081263;28;20041;-76
2024/01/15 12:41:38;;;;;;;10.80;1.92;;;;;;;;;;5083884;28;20483;-77
2024/01/15 12:44:05;;;;;;;5.60;0.90;;;;;;;;;;5082648;28;20413;-77
2024/01/15 12:46:31;;;;;;;7.57;1.05;;;;;;;;;;5079926;28;20407;-76
2024/01/15 12:48:57;;;;;;;10.32;1.10;;;;;;;;;;5078457;28;20040;-76
2024/01/15 12:51:27;;;;;;;8.27;1.40;;;;;;;;;;5052367;28;20040;-77
2024/01/15 12:53:53;;;;;;;5.78;1.08;;;;;;;;;;5079628;28;20051;-78
2024/01/15 12:56:19;;;;;;;5.45;0.85;;;;;;;;;;5068787;28;20051;-76
2024/01/15 12:58:45;;;;;;;4.38;0.80;;;;;;;;;;5077150;28;22109;-76
2024/01/15 13:01:12;;;;;;;3.95;0.80;;;;;;;;;;5084982;28;20043;-77
2024/01/15 13:03:38;;;;;;;6.50;1.02;;;;;;;;;;5067663;28;20064;-75
2024/01/15 13:06:04;;;;;;;9.82;1.15;;;;;;;;;;5083345;28;20105;-76
2024/01/15 13:08:30;;;;;;;3.70;0.85;;;;;;;;;;5087100;28;20040;-75
2024/01/15 13:10:57;;;;;;;8.13;0.80;;;;;;;;;;5071906;28;20051;-76
2024/01/15 13:13:23;;;;;;;8.77;1.67;;;;;;;;;;5065402;28;20507;-76
2024/01/15 13:15:49;;;;;;;6.05;0.73;;;;;;;;;;5091355;28;20419;-78
2024/01/15 13:18:15;;;;;;;6.95;1.00;;;;;;;;;;5085975;28;20039;-76
2024/01/15 13:20:42;;;;;;;7.07;0.63;;;;;;;;;;5069906;28;20032;-76
2024/01/15 13:23:09;;;;;;;5.22;1.30;;;;;;;;;;5067638;28;21658;-76
2024/01/15 13:25:37;;;;;;;4.75;1.02;;;;;;;;;;5070875;28;20101;-75
2024/01/15 13:28:04;;;;;;;7.32;2.67;;;;;;;;;;5072858;28;20044;-76
2024/01/15 13:30:31;;;;;;;4.88;0.93;;;;;;;;;;5076594;28;20047;-77
2024/01/15 13:32:58;;;;;;;4.47;1.45;;;;;;;;;;5088406;28;20181;-78
2024/01/15 13:35:24;;;;;;;12.13;1.30;;;;;;;;;;5072822;28;20143;-76
2024/01/15 13:37:51;;;;;;;5.63;1.05;;;;;;;;;;5087207;28;20039;-76
2024/01/15 13:40:19;;;;;;;11.73;2.22;;;;;;;;;;5063215;28;20399;-76
2024/01/15 13:42:47;;;;;;;8.63;2.53;;;;;;;;;;5089996;28;20036;-77
2024/01/15 13:45:14;;;;;;;14.00;2.03;;;;;;;;;;5089027;28;20048;-77
2024/01/15 13:47:42;;;;;;;5.60;1.08;;;;;;;;;;5094513;28;20043;-75
2024/01/15 13:50:08;;;;;;;7.25;1.30;;;;;;;;;;5068773;28;20425;-74
2024/01/15 13:52:34;;;;;;;3.28;1.08;;;;;;;;;;5087021;28;20058;-75
2024/01/15 13:55:01;;;;;;;5.65;1.30;;;;;;;;;;5072991;28;20040;-75
2024/01/15 13:57:27;;;;;;;9.20;2.78;;;;;;;;;;5055266;28;20063;-75
2024/01/15 13:59:53;;;;;;;10.32;1.48;;;;;;;;;;5070457;28;20036;-74
2024/01/15 14:02:20;;;;;;;12.00;1.45;;;;;;;;;;5071803;28;20067;-75
2024/01/15 14:04:46;;;;;;;10.27;1.65;;;;;;;;;;5070893;28;20070;-74
2024/01/15 14:07:12;;;;;;;7.53;1.05;;;;;;;;;;5057619;28;20433;-75
2024/01/15 14:09:38;;;;;;;6.43;1.48;;;;;;;;;;5053185;28;20148;-75
2024/01/15 14:12:06;;;;;;;6.15;1.27;;;;;;;;;;5069894;28;20485;-75
2024/01/15 14:14:33;;;;;;;7.22;0.93;;;;;;;;;;5074243;28;20084;-75
2024/01/15 14:16:59;;;;;;;5.63;2.08;;;;;;;;;;5079747;28;20442;-74
2024/01/15 14:19:25;;;;;;;6.63;1.05;;;;;;;;;;5061411;28;20139;-75
2024/01/15 14:21:51;;;;;;;10.25;1.23;;;;;;;;;;5054255;28;20036;-75
2024/01/15 14:24:17;;;;;;;10.60;2.15;;;;;;;;;;5074366;28;20736;-75
2024/01/15 14:26:43;;;;;;;10.98;1.52;;;;;;;;;;5074003;28;20040;-75
2024/01/15 14:29:09;;;;;;;4.30;0.93;;;;;;;;;;5069004;28;20403;-76
2024/01/15 14:31:35;;;;;;;7.70;1.13;;;;;;;;;;5064194;28;20086;-75
2024/01/15 14:34:05;;;;;;;10.32;0.88;;;;;;;;;;5059099;28;20118;-76